sensor_id;sensor_type;location;lat;lon;timestamp;P1;durP1;ratioP1;P2;durP2;ratioP2
80584;SDS011;70137;56.482;9.154;2023-09-19T00:02:01;10.73;;;4.45;;
80584;SDS011;70137;56.482;9.154;2023-09-19T00:04:31;7.75;;;4.07;;
80584;SDS011;70137;56.482;9.154;2023-09-19T00:06:57;7.72;;;4.15;;
80584;SDS011;70137;56.482;9.154;2023-09-19T00:09:23;8.35;;;3.80;;
80584;SDS011;70137;56.482;9.154;2023-09-19T00:11:51;8.55;;;3.55;;
80584;SDS011;70137;56.482;9.154;2023-09-19T00:14:16;9.38;;;4.25;;
80584;SDS011;70137;56.482;9.154;2023-09-19T00:16:42;8.60;;;3.67;;
80584;SDS011;70137;56.482;9.154;2023-09-19T00:19:07;8.40;;;3.78;;
80584;SDS011;70137;56.482;9.154;2023-09-19T00:21:33;8.35;;;3.38;;
80584;SDS011;70137;56.482;9.154;2023-09-19T00:24:00;8.52;;;3.63;;
80584;SDS011;70137;56.482;9.154;2023-09-19T00:26:26;9.10;;;3.38;;
80584;SDS011;70137;56.482;9.154;2023-09-19T00:28:54;9.15;;;3.45;;
80584;SDS011;70137;56.482;9.154;2023-09-19T00:31:19;7.53;;;3.17;;
80584;SDS011;70137;56.482;9.154;2023-09-19T00:33:45;7.07;;;2.80;;
80584;SDS011;70137;56.482;9.154;2023-09-19T00:36:10;0.70;;;0.63;;
80584;SDS011;70137;56.482;9.154;2023-09-19T00:38:35;1.65;;;0.40;;
80584;SDS011;70137;56.482;9.154;2023-09-19T00:41:01;0.90;;;0.40;;
80584;SDS011;70137;56.482;9.154;2023-09-19T00:43:26;2.03;;;0.32;;
80584;SDS011;70137;56.482;9.154;2023-09-19T00:45:53;1.83;;;0.52;;
80584;SDS011;70137;56.482;9.154;2023-09-19T00:48:20;2.33;;;0.40;;
80584;SDS011;70137;56.482;9.154;2023-09-19T00:50:47;0.95;;;0.60;;
80584;SDS011;70137;56.482;9.154;2023-09-19T00:53:15;3.85;;;1.05;;
80584;SDS011;70137;56.482;9.154;2023-09-19T00:55:45;4.88;;;1.23;;
80584;SDS011;70137;56.482;9.154;2023-09-19T00:58:11;4.30;;;1.20;;
80584;SDS011;70137;56.482;9.154;2023-09-19T01:00:37;4.40;;;1.30;;
80584;SDS011;70137;56.482;9.154;2023-09-19T01:03:03;7.75;;;1.92;;
80584;SDS011;70137;56.482;9.154;2023-09-19T01:05:29;7.32;;;1.58;;
80584;SDS011;70137;56.482;9.154;2023-09-19T01:07:55;5.22;;;1.13;;
80584;SDS011;70137;56.482;9.154;2023-09-19T01:10:20;6.75;;;1.38;;
80584;SDS011;70137;56.482;9.154;2023-09-19T01:30:21;5.70;;;1.15;;
80584;SDS011;70137;56.482;9.154;2023-09-19T01:32:52;6.47;;;1.33;;
80584;SDS011;70137;56.482;9.154;2023-09-19T01:35:19;4.93;;;1.10;;
80584;SDS011;70137;56.482;9.154;2023-09-19T01:37:44;4.88;;;0.88;;
80584;SDS011;70137;56.482;9.154;2023-09-19T01:40:12;8.45;;;1.20;;
80584;SDS011;70137;56.482;9.154;2023-09-19T01:42:48;10.02;;;1.52;;
80584;SDS011;70137;56.482;9.154;2023-09-19T01:51:07;8.35;;;1.30;;
80584;SDS011;70137;56.482;9.154;2023-09-19T01:53:43;7.63;;;1.10;;
80584;SDS011;70137;56.482;9.154;2023-09-19T01:56:21;7.05;;;1.20;;
80584;SDS011;70137;56.482;9.154;2023-09-19T01:58:53;9.77;;;1.60;;
80584;SDS011;70137;56.482;9.154;2023-09-19T02:01:24;8.40;;;1.23;;
80584;SDS011;70137;56.482;9.154;2023-09-19T02:03:51;12.25;;;1.42;;
80584;SDS011;70137;56.482;9.154;2023-09-19T02:06:18;12.15;;;1.30;;
80584;SDS011;70137;56.482;9.154;2023-09-19T02:08:44;7.28;;;1.10;;
80584;SDS011;70137;56.482;9.154;2023-09-19T02:11:10;12.13;;;1.33;;
80584;SDS011;70137;56.482;9.154;2023-09-19T02:13:36;6.63;;;0.80;;
80584;SDS011;70137;56.482;9.154;2023-09-19T02:16:02;7.47;;;1.38;;
80584;SDS011;70137;56.482;9.154;2023-09-19T02:18:29;9.95;;;1.38;;
80584;SDS011;70137;56.482;9.154;2023-09-19T02:20:55;5.95;;;1.20;;
80584;SDS011;70137;56.482;9.154;2023-09-19T02:23:21;5.57;;;1.10;;
80584;SDS011;70137;56.482;9.154;2023-09-19T02:25:59;7.70;;;1.35;;
80584;SDS011;70137;56.482;9.154;2023-09-19T02:28:28;6.78;;;1.02;;
80584;SDS011;70137;56.482;9.154;2023-09-19T02:31:00;5.05;;;1.58;;
80584;SDS011;70137;56.482;9.154;2023-09-19T02:33:26;5.70;;;1.38;;
80584;SDS011;70137;56.482;9.154;2023-09-19T02:35:55;11.43;;;1.63;;
80584;SDS011;70137;56.482;9.154;2023-09-19T02:38:27;8.25;;;1.33;;
80584;SDS011;70137;56.482;9.154;2023-09-19T02:40:53;4.75;;;1.38;;
80584;SDS011;70137;56.482;9.154;2023-09-19T02:43:20;7.82;;;1.73;;
80584;SDS011;70137;56.482;9.154;2023-09-19T02:45:46;6.15;;;1.50;;
80584;SDS011;70137;56.482;9.154;2023-09-19T02:48:20;7.13;;;1.85;;
80584;SDS011;70137;56.482;9.154;2023-09-19T02:50:46;7.13;;;1.42;;
80584;SDS011;70137;56.482;9.154;2023-09-19T02:53:14;9.00;;;1.65;;
80584;SDS011;70137;56.482;9.154;2023-09-19T02:55:40;10.88;;;1.95;;
80584;SDS011;70137;56.482;9.154;2023-09-19T02:58:05;10.55;;;1.80;;
80584;SDS011;70137;56.482;9.154;2023-09-19T03:00:39;8.50;;;1.80;;
80584;SDS011;70137;56.482;9.154;2023-09-19T03:03:06;7.43;;;1.65;;
80584;SDS011;70137;56.482;9.154;2023-09-19T03:05:33;8.27;;;1.50;;
80584;SDS011;70137;56.482;9.154;2023-09-19T03:07:59;7.28;;;1.42;;
80584;SDS011;70137;56.482;9.154;2023-09-19T03:10:28;9.55;;;1.63;;
80584;SDS011;70137;56.482;9.154;2023-09-19T03:12:54;6.15;;;1.52;;
80584;SDS011;70137;56.482;9.154;2023-09-19T03:15:19;8.93;;;1.27;;
80584;SDS011;70137;56.482;9.154;2023-09-19T03:17:46;8.38;;;1.65;;
80584;SDS011;70137;56.482;9.154;2023-09-19T03:20:15;8.25;;;1.55;;
80584;SDS011;70137;56.482;9.154;2023-09-19T03:22:43;7.55;;;1.35;;
80584;SDS011;70137;56.482;9.154;2023-09-19T03:25:09;7.30;;;1.52;;
80584;SDS011;70137;56.482;9.154;2023-09-19T03:27:36;8.52;;;1.80;;
80584;SDS011;70137;56.482;9.154;2023-09-19T03:30:03;6.72;;;1.27;;
80584;SDS011;70137;56.482;9.154;2023-09-19T03:32:33;7.45;;;1.15;;
80584;SDS011;70137;56.482;9.154;2023-09-19T03:34:59;7.35;;;1.50;;
80584;SDS011;70137;56.482;9.154;2023-09-19T03:37:24;6.70;;;1.17;;
80584;SDS011;70137;56.482;9.154;2023-09-19T03:39:50;7.47;;;1.63;;
80584;SDS011;70137;56.482;9.154;2023-09-19T03:42:15;9.85;;;1.70;;
80584;SDS011;70137;56.482;9.154;2023-09-19T03:44:40;8.13;;;1.50;;
80584;SDS011;70137;56.482;9.154;2023-09-19T03:47:05;12.05;;;2.17;;
80584;SDS011;70137;56.482;9.154;2023-09-19T03:49:32;5.60;;;1.52;;
80584;SDS011;70137;56.482;9.154;2023-09-19T03:51:57;11.73;;;1.83;;
80584;SDS011;70137;56.482;9.154;2023-09-19T03:54:22;8.50;;;1.58;;
80584;SDS011;70137;56.482;9.154;2023-09-19T03:56:48;5.28;;;1.45;;
80584;SDS011;70137;56.482;9.154;2023-09-19T03:59:13;6.63;;;1.27;;
80584;SDS011;70137;56.482;9.154;2023-09-19T04:01:38;5.65;;;1.42;;
80584;SDS011;70137;56.482;9.154;2023-09-19T04:04:06;7.35;;;1.33;;
80584;SDS011;70137;56.482;9.154;2023-09-19T04:06:34;6.60;;;1.20;;
80584;SDS011;70137;56.482;9.154;2023-09-19T04:09:03;6.22;;;1.13;;
80584;SDS011;70137;56.482;9.154;2023-09-19T04:11:32;6.75;;;1.35;;
80584;SDS011;70137;56.482;9.154;2023-09-19T04:13:58;7.30;;;1.33;;
80584;SDS011;70137;56.482;9.154;2023-09-19T04:16:23;8.52;;;1.50;;
80584;SDS011;70137;56.482;9.154;2023-09-19T04:18:48;5.38;;;1.40;;
80584;SDS011;70137;56.482;9.154;2023-09-19T04:21:14;3.47;;;1.50;;
80584;SDS011;70137;56.482;9.154;2023-09-19T04:23:39;7.07;;;1.50;;
80584;SDS011;70137;56.482;9.154;2023-09-19T04:26:04;6.65;;;1.58;;
80584;SDS011;70137;56.482;9.154;2023-09-19T04:28:31;4.65;;;1.40;;
80584;SDS011;70137;56.482;9.154;2023-09-19T04:30:57;9.35;;;1.55;;
80584;SDS011;70137;56.482;9.154;2023-09-19T04:33:23;8.95;;;1.80;;
80584;SDS011;70137;56.482;9.154;2023-09-19T04:35:49;7.60;;;1.88;;
80584;SDS011;70137;56.482;9.154;2023-09-19T04:38:16;7.57;;;1.58;;
80584;SDS011;70137;56.482;9.154;2023-09-19T04:40:42;4.60;;;1.38;;
80584;SDS011;70137;56.482;9.154;2023-09-19T04:43:08;7.65;;;1.60;;
80584;SDS011;70137;56.482;9.154;2023-09-19T04:45:33;6.82;;;1.40;;
80584;SDS011;70137;56.482;9.154;2023-09-19T04:47:59;5.70;;;1.50;;
80584;SDS011;70137;56.482;9.154;2023-09-19T04:50:24;9.75;;;1.77;;
80584;SDS011;70137;56.482;9.154;2023-09-19T04:52:51;8.63;;;1.52;;
80584;SDS011;70137;56.482;9.154;2023-09-19T04:55:17;8.43;;;1.52;;
80584;SDS011;70137;56.482;9.154;2023-09-19T04:57:47;5.32;;;1.70;;
80584;SDS011;70137;56.482;9.154;2023-09-19T05:00:14;5.63;;;2.00;;
80584;SDS011;70137;56.482;9.154;2023-09-19T05:02:41;12.07;;;1.73;;
80584;SDS011;70137;56.482;9.154;2023-09-19T05:05:07;8.75;;;1.67;;
80584;SDS011;70137;56.482;9.154;2023-09-19T05:07:33;13.48;;;2.65;;
80584;SDS011;70137;56.482;9.154;2023-09-19T05:09:59;8.65;;;2.00;;
80584;SDS011;70137;56.482;9.154;2023-09-19T05:12:28;7.22;;;1.80;;
80584;SDS011;70137;56.482;9.154;2023-09-19T05:14:53;10.73;;;2.05;;
80584;SDS011;70137;56.482;9.154;2023-09-19T05:17:18;9.82;;;2.20;;
80584;SDS011;70137;56.482;9.154;2023-09-19T05:19:44;7.68;;;2.08;;
80584;SDS011;70137;56.482;9.154;2023-09-19T05:22:11;14.73;;;2.67;;
80584;SDS011;70137;56.482;9.154;2023-09-19T05:24:37;10.30;;;2.38;;
80584;SDS011;70137;56.482;9.154;2023-09-19T05:27:04;14.30;;;2.15;;
80584;SDS011;70137;56.482;9.154;2023-09-19T05:29:32;9.32;;;2.25;;
80584;SDS011;70137;56.482;9.154;2023-09-19T05:31:58;12.32;;;2.30;;
80584;SDS011;70137;56.482;9.154;2023-09-19T05:34:23;26.35;;;3.00;;
80584;SDS011;70137;56.482;9.154;2023-09-19T05:36:50;11.43;;;2.20;;
80584;SDS011;70137;56.482;9.154;2023-09-19T05:39:17;15.07;;;2.20;;
80584;SDS011;70137;56.482;9.154;2023-09-19T05:41:42;10.10;;;1.80;;
80584;SDS011;70137;56.482;9.154;2023-09-19T05:44:08;13.65;;;2.25;;
80584;SDS011;70137;56.482;9.154;2023-09-19T05:46:33;12.27;;;2.17;;
80584;SDS011;70137;56.482;9.154;2023-09-19T05:48:58;9.63;;;2.00;;
80584;SDS011;70137;56.482;9.154;2023-09-19T05:51:24;12.10;;;2.22;;
80584;SDS011;70137;56.482;9.154;2023-09-19T05:53:50;18.08;;;2.50;;
80584;SDS011;70137;56.482;9.154;2023-09-19T05:56:15;15.70;;;2.80;;
80584;SDS011;70137;56.482;9.154;2023-09-19T05:58:42;12.73;;;2.25;;
80584;SDS011;70137;56.482;9.154;2023-09-19T06:01:09;13.80;;;2.35;;
80584;SDS011;70137;56.482;9.154;2023-09-19T06:03:34;19.50;;;2.72;;
80584;SDS011;70137;56.482;9.154;2023-09-19T06:06:00;11.13;;;2.22;;
80584;SDS011;70137;56.482;9.154;2023-09-19T06:08:31;14.43;;;2.08;;
80584;SDS011;70137;56.482;9.154;2023-09-19T06:10:56;13.27;;;2.00;;
80584;SDS011;70137;56.482;9.154;2023-09-19T06:13:22;13.52;;;2.13;;
80584;SDS011;70137;56.482;9.154;2023-09-19T06:15:48;14.82;;;2.10;;
80584;SDS011;70137;56.482;9.154;2023-09-19T06:18:14;12.60;;;2.00;;
80584;SDS011;70137;56.482;9.154;2023-09-19T06:20:45;8.95;;;1.90;;
80584;SDS011;70137;56.482;9.154;2023-09-19T06:23:12;7.72;;;2.22;;
80584;SDS011;70137;56.482;9.154;2023-09-19T06:25:37;9.80;;;1.90;;
80584;SDS011;70137;56.482;9.154;2023-09-19T06:28:03;9.32;;;1.55;;
80584;SDS011;70137;56.482;9.154;2023-09-19T06:30:30;9.43;;;1.67;;
80584;SDS011;70137;56.482;9.154;2023-09-19T06:32:56;15.90;;;1.98;;
80584;SDS011;70137;56.482;9.154;2023-09-19T06:35:22;7.05;;;1.40;;
80584;SDS011;70137;56.482;9.154;2023-09-19T06:37:48;10.50;;;1.55;;
80584;SDS011;70137;56.482;9.154;2023-09-19T06:40:14;10.27;;;1.67;;
80584;SDS011;70137;56.482;9.154;2023-09-19T06:42:41;7.47;;;1.38;;
80584;SDS011;70137;56.482;9.154;2023-09-19T06:45:07;10.45;;;1.58;;
80584;SDS011;70137;56.482;9.154;2023-09-19T06:47:33;9.02;;;1.58;;
80584;SDS011;70137;56.482;9.154;2023-09-19T06:49:59;18.30;;;1.77;;
80584;SDS011;70137;56.482;9.154;2023-09-19T06:52:24;4.82;;;1.20;;
80584;SDS011;70137;56.482;9.154;2023-09-19T06:54:51;12.70;;;1.42;;
80584;SDS011;70137;56.482;9.154;2023-09-19T06:57:17;9.85;;;1.35;;
80584;SDS011;70137;56.482;9.154;2023-09-19T06:59:43;9.70;;;0.93;;
80584;SDS011;70137;56.482;9.154;2023-09-19T07:02:10;9.82;;;1.60;;
80584;SDS011;70137;56.482;9.154;2023-09-19T07:04:35;9.27;;;1.20;;
80584;SDS011;70137;56.482;9.154;2023-09-19T07:07:01;12.48;;;1.30;;
80584;SDS011;70137;56.482;9.154;2023-09-19T07:09:26;3.67;;;1.10;;
80584;SDS011;70137;56.482;9.154;2023-09-19T07:11:52;4.85;;;1.17;;
80584;SDS011;70137;56.482;9.154;2023-09-19T07:14:18;7.47;;;0.82;;
80584;SDS011;70137;56.482;9.154;2023-09-19T07:16:43;10.52;;;1.00;;
80584;SDS011;70137;56.482;9.154;2023-09-19T07:19:10;8.05;;;1.15;;
80584;SDS011;70137;56.482;9.154;2023-09-19T07:21:37;6.20;;;1.00;;
80584;SDS011;70137;56.482;9.154;2023-09-19T07:24:03;8.65;;;1.42;;
80584;SDS011;70137;56.482;9.154;2023-09-19T07:26:29;8.00;;;1.27;;
80584;SDS011;70137;56.482;9.154;2023-09-19T07:28:56;2.67;;;0.70;;
80584;SDS011;70137;56.482;9.154;2023-09-19T07:31:22;2.42;;;0.68;;
80584;SDS011;70137;56.482;9.154;2023-09-19T07:33:47;4.00;;;0.80;;
80584;SDS011;70137;56.482;9.154;2023-09-19T07:36:13;5.50;;;0.90;;
80584;SDS011;70137;56.482;9.154;2023-09-19T07:38:39;3.63;;;0.73;;
80584;SDS011;70137;56.482;9.154;2023-09-19T07:41:05;3.22;;;0.70;;
80584;SDS011;70137;56.482;9.154;2023-09-19T07:43:31;2.22;;;0.70;;
80584;SDS011;70137;56.482;9.154;2023-09-19T07:45:56;5.45;;;0.85;;
80584;SDS011;70137;56.482;9.154;2023-09-19T07:48:22;3.85;;;0.52;;
80584;SDS011;70137;56.482;9.154;2023-09-19T07:50:49;3.97;;;0.77;;
80584;SDS011;70137;56.482;9.154;2023-09-19T07:53:14;6.22;;;0.93;;
80584;SDS011;70137;56.482;9.154;2023-09-19T07:55:42;3.53;;;0.70;;
80584;SDS011;70137;56.482;9.154;2023-09-19T07:58:08;3.90;;;0.80;;
80584;SDS011;70137;56.482;9.154;2023-09-19T08:00:33;6.80;;;0.60;;
80584;SDS011;70137;56.482;9.154;2023-09-19T08:03:00;4.32;;;0.65;;
80584;SDS011;70137;56.482;9.154;2023-09-19T08:05:25;3.85;;;0.70;;
80584;SDS011;70137;56.482;9.154;2023-09-19T08:07:51;3.97;;;0.90;;
80584;SDS011;70137;56.482;9.154;2023-09-19T08:10:17;1.90;;;0.47;;
80584;SDS011;70137;56.482;9.154;2023-09-19T08:12:44;3.28;;;0.70;;
80584;SDS011;70137;56.482;9.154;2023-09-19T08:15:12;4.40;;;0.80;;
80584;SDS011;70137;56.482;9.154;2023-09-19T08:17:38;2.90;;;0.60;;
80584;SDS011;70137;56.482;9.154;2023-09-19T08:20:03;2.38;;;0.85;;
80584;SDS011;70137;56.482;9.154;2023-09-19T08:22:30;1.98;;;0.43;;
80584;SDS011;70137;56.482;9.154;2023-09-19T08:24:57;2.40;;;0.65;;
80584;SDS011;70137;56.482;9.154;2023-09-19T08:27:23;2.53;;;0.55;;
80584;SDS011;70137;56.482;9.154;2023-09-19T08:29:52;1.33;;;0.38;;
80584;SDS011;70137;56.482;9.154;2023-09-19T08:32:17;3.22;;;0.40;;
80584;SDS011;70137;56.482;9.154;2023-09-19T08:34:44;2.45;;;0.60;;
80584;SDS011;70137;56.482;9.154;2023-09-19T08:37:10;2.05;;;0.50;;
80584;SDS011;70137;56.482;9.154;2023-09-19T08:39:35;3.55;;;0.70;;
80584;SDS011;70137;56.482;9.154;2023-09-19T08:42:02;1.02;;;0.50;;
80584;SDS011;70137;56.482;9.154;2023-09-19T08:44:28;2.95;;;0.90;;
80584;SDS011;70137;56.482;9.154;2023-09-19T08:46:55;3.17;;;0.90;;
80584;SDS011;70137;56.482;9.154;2023-09-19T08:49:36;5.82;;;0.90;;
80584;SDS011;70137;56.482;9.154;2023-09-19T08:52:24;4.50;;;1.02;;
80584;SDS011;70137;56.482;9.154;2023-09-19T08:54:52;3.15;;;1.02;;
80584;SDS011;70137;56.482;9.154;2023-09-19T08:57:19;6.63;;;1.13;;
80584;SDS011;70137;56.482;9.154;2023-09-19T08:59:47;8.30;;;1.23;;
80584;SDS011;70137;56.482;9.154;2023-09-19T09:02:15;7.45;;;1.20;;
80584;SDS011;70137;56.482;9.154;2023-09-19T09:04:43;6.80;;;1.00;;
80584;SDS011;70137;56.482;9.154;2023-09-19T09:07:11;8.85;;;1.20;;
80584;SDS011;70137;56.482;9.154;2023-09-19T09:09:41;4.82;;;0.82;;
80584;SDS011;70137;56.482;9.154;2023-09-19T09:12:08;7.18;;;1.45;;
80584;SDS011;70137;56.482;9.154;2023-09-19T09:14:37;6.70;;;1.77;;
80584;SDS011;70137;56.482;9.154;2023-09-19T09:17:03;8.80;;;1.45;;
80584;SDS011;70137;56.482;9.154;2023-09-19T09:19:29;8.65;;;1.42;;
80584;SDS011;70137;56.482;9.154;2023-09-19T09:22:05;7.85;;;1.30;;
80584;SDS011;70137;56.482;9.154;2023-09-19T09:24:31;8.48;;;1.38;;
80584;SDS011;70137;56.482;9.154;2023-09-19T09:27:03;5.88;;;1.42;;
80584;SDS011;70137;56.482;9.154;2023-09-19T09:29:43;7.63;;;1.10;;
80584;SDS011;70137;56.482;9.154;2023-09-19T09:34:45;4.40;;;0.95;;
80584;SDS011;70137;56.482;9.154;2023-09-19T09:37:14;11.75;;;1.33;;
80584;SDS011;70137;56.482;9.154;2023-09-19T09:39:40;8.15;;;1.00;;
80584;SDS011;70137;56.482;9.154;2023-09-19T09:42:42;4.45;;;0.98;;
80584;SDS011;70137;56.482;9.154;2023-09-19T09:45:15;6.20;;;1.25;;
80584;SDS011;70137;56.482;9.154;2023-09-19T09:47:45;7.43;;;1.20;;
80584;SDS011;70137;56.482;9.154;2023-09-19T09:50:34;8.27;;;1.20;;
80584;SDS011;70137;56.482;9.154;2023-09-19T09:53:19;6.95;;;1.38;;
80584;SDS011;70137;56.482;9.154;2023-09-19T09:58:34;5.80;;;1.30;;
80584;SDS011;70137;56.482;9.154;2023-09-19T10:01:24;4.63;;;1.40;;
80584;SDS011;70137;56.482;9.154;2023-09-19T10:03:52;9.38;;;1.30;;
80584;SDS011;70137;56.482;9.154;2023-09-19T10:06:22;5.72;;;1.23;;
80584;SDS011;70137;56.482;9.154;2023-09-19T10:11:43;3.08;;;0.60;;
80584;SDS011;70137;56.482;9.154;2023-09-19T10:14:13;5.43;;;0.90;;
80584;SDS011;70137;56.482;9.154;2023-09-19T10:16:50;5.18;;;0.80;;
80584;SDS011;70137;56.482;9.154;2023-09-19T10:19:29;5.78;;;0.90;;
80584;SDS011;70137;56.482;9.154;2023-09-19T10:21:58;9.98;;;0.90;;
80584;SDS011;70137;56.482;9.154;2023-09-19T10:24:26;4.68;;;1.10;;
80584;SDS011;70137;56.482;9.154;2023-09-19T10:26:53;5.13;;;1.20;;
80584;SDS011;70137;56.482;9.154;2023-09-19T10:29:20;9.15;;;1.38;;
80584;SDS011;70137;56.482;9.154;2023-09-19T10:31:47;6.47;;;1.40;;
80584;SDS011;70137;56.482;9.154;2023-09-19T10:34:15;6.97;;;1.02;;
80584;SDS011;70137;56.482;9.154;2023-09-19T10:36:45;8.30;;;1.67;;
80584;SDS011;70137;56.482;9.154;2023-09-19T10:39:15;7.43;;;1.30;;
80584;SDS011;70137;56.482;9.154;2023-09-19T10:41:50;9.27;;;1.30;;
80584;SDS011;70137;56.482;9.154;2023-09-19T10:44:25;8.43;;;1.10;;
80584;SDS011;70137;56.482;9.154;2023-09-19T10:46:54;5.40;;;1.45;;
80584;SDS011;70137;56.482;9.154;2023-09-19T10:49:20;8.43;;;1.30;;
80584;SDS011;70137;56.482;9.154;2023-09-19T10:51:46;7.78;;;1.83;;
80584;SDS011;70137;56.482;9.154;2023-09-19T10:54:15;7.25;;;1.23;;
80584;SDS011;70137;56.482;9.154;2023-09-19T10:56:46;7.05;;;1.10;;
80584;SDS011;70137;56.482;9.154;2023-09-19T10:59:15;12.23;;;1.35;;
80584;SDS011;70137;56.482;9.154;2023-09-19T11:01:44;7.80;;;1.25;;
80584;SDS011;70137;56.482;9.154;2023-09-19T11:04:37;8.75;;;1.85;;
80584;SDS011;70137;56.482;9.154;2023-09-19T11:09:42;5.60;;;0.93;;
80584;SDS011;70137;56.482;9.154;2023-09-19T11:12:11;5.78;;;1.00;;
80584;SDS011;70137;56.482;9.154;2023-09-19T11:14:38;10.20;;;1.52;;
80584;SDS011;70137;56.482;9.154;2023-09-19T11:30:31;5.32;;;1.10;;
80584;SDS011;70137;56.482;9.154;2023-09-19T11:46:26;7.85;;;1.63;;
80584;SDS011;70137;56.482;9.154;2023-09-19T11:48:53;6.30;;;1.02;;
80584;SDS011;70137;56.482;9.154;2023-09-19T11:51:20;4.30;;;1.02;;
80584;SDS011;70137;56.482;9.154;2023-09-19T11:53:53;6.90;;;1.15;;
80584;SDS011;70137;56.482;9.154;2023-09-19T11:56:20;4.85;;;1.27;;
80584;SDS011;70137;56.482;9.154;2023-09-19T11:58:49;3.47;;;0.63;;
80584;SDS011;70137;56.482;9.154;2023-09-19T12:01:26;6.03;;;0.77;;
80584;SDS011;70137;56.482;9.154;2023-09-19T12:03:57;5.88;;;0.95;;
80584;SDS011;70137;56.482;9.154;2023-09-19T12:06:27;8.18;;;1.00;;
80584;SDS011;70137;56.482;9.154;2023-09-19T12:09:00;6.25;;;1.08;;
80584;SDS011;70137;56.482;9.154;2023-09-19T12:11:29;1.83;;;0.90;;
80584;SDS011;70137;56.482;9.154;2023-09-19T12:13:58;5.07;;;0.90;;
80584;SDS011;70137;56.482;9.154;2023-09-19T12:16:26;6.25;;;1.23;;
80584;SDS011;70137;56.482;9.154;2023-09-19T12:18:55;6.18;;;1.20;;
80584;SDS011;70137;56.482;9.154;2023-09-19T12:21:26;6.53;;;1.00;;
80584;SDS011;70137;56.482;9.154;2023-09-19T12:24:06;6.93;;;0.90;;
80584;SDS011;70137;56.482;9.154;2023-09-19T12:26:39;6.25;;;1.10;;
80584;SDS011;70137;56.482;9.154;2023-09-19T12:29:15;7.70;;;1.35;;
80584;SDS011;70137;56.482;9.154;2023-09-19T12:31:58;6.65;;;1.20;;
80584;SDS011;70137;56.482;9.154;2023-09-19T12:34:28;6.75;;;1.08;;
80584;SDS011;70137;56.482;9.154;2023-09-19T12:39:49;8.55;;;1.30;;
80584;SDS011;70137;56.482;9.154;2023-09-19T12:42:16;7.30;;;1.35;;
80584;SDS011;70137;56.482;9.154;2023-09-19T12:44:45;10.05;;;1.20;;
80584;SDS011;70137;56.482;9.154;2023-09-19T12:47:12;5.03;;;1.17;;
80584;SDS011;70137;56.482;9.154;2023-09-19T12:52:41;8.90;;;1.48;;
80584;SDS011;70137;56.482;9.154;2023-09-19T12:55:19;11.18;;;1.67;;
80584;SDS011;70137;56.482;9.154;2023-09-19T12:58:08;11.07;;;1.73;;
80584;SDS011;70137;56.482;9.154;2023-09-19T13:00:43;8.13;;;1.73;;
80584;SDS011;70137;56.482;9.154;2023-09-19T13:03:24;8.00;;;1.77;;
80584;SDS011;70137;56.482;9.154;2023-09-19T13:06:00;8.82;;;1.40;;
80584;SDS011;70137;56.482;9.154;2023-09-19T13:08:31;6.82;;;1.58;;
80584;SDS011;70137;56.482;9.154;2023-09-19T13:13:36;10.23;;;1.70;;
80584;SDS011;70137;56.482;9.154;2023-09-19T13:16:02;5.78;;;1.38;;
80584;SDS011;70137;56.482;9.154;2023-09-19T13:18:32;7.25;;;1.35;;
80584;SDS011;70137;56.482;9.154;2023-09-19T13:21:11;6.88;;;1.70;;
80584;SDS011;70137;56.482;9.154;2023-09-19T13:23:49;8.35;;;1.83;;
80584;SDS011;70137;56.482;9.154;2023-09-19T13:26:15;7.25;;;1.85;;
80584;SDS011;70137;56.482;9.154;2023-09-19T13:28:40;6.10;;;1.40;;
80584;SDS011;70137;56.482;9.154;2023-09-19T13:31:06;5.47;;;1.17;;
80584;SDS011;70137;56.482;9.154;2023-09-19T13:33:32;7.38;;;1.67;;
80584;SDS011;70137;56.482;9.154;2023-09-19T13:35:58;6.32;;;1.50;;
80584;SDS011;70137;56.482;9.154;2023-09-19T13:38:24;8.13;;;1.90;;
80584;SDS011;70137;56.482;9.154;2023-09-19T13:40:49;9.50;;;1.63;;
80584;SDS011;70137;56.482;9.154;2023-09-19T13:43:14;10.75;;;1.92;;
80584;SDS011;70137;56.482;9.154;2023-09-19T13:45:40;13.18;;;1.77;;
80584;SDS011;70137;56.482;9.154;2023-09-19T13:48:08;8.07;;;1.58;;
80584;SDS011;70137;56.482;9.154;2023-09-19T13:50:36;9.25;;;2.47;;
80584;SDS011;70137;56.482;9.154;2023-09-19T13:53:01;13.68;;;2.30;;
80584;SDS011;70137;56.482;9.154;2023-09-19T13:55:27;13.30;;;2.65;;
80584;SDS011;70137;56.482;9.154;2023-09-19T13:57:52;11.60;;;2.25;;
80584;SDS011;70137;56.482;9.154;2023-09-19T14:00:20;16.17;;;2.50;;
80584;SDS011;70137;56.482;9.154;2023-09-19T14:02:47;10.05;;;2.35;;
80584;SDS011;70137;56.482;9.154;2023-09-19T14:05:14;14.02;;;2.63;;
80584;SDS011;70137;56.482;9.154;2023-09-19T14:07:40;15.65;;;2.55;;
80584;SDS011;70137;56.482;9.154;2023-09-19T14:10:06;15.15;;;2.78;;
80584;SDS011;70137;56.482;9.154;2023-09-19T14:12:36;11.52;;;2.67;;
80584;SDS011;70137;56.482;9.154;2023-09-19T14:15:02;15.70;;;2.53;;
80584;SDS011;70137;56.482;9.154;2023-09-19T14:17:28;11.60;;;2.20;;
80584;SDS011;70137;56.482;9.154;2023-09-19T14:19:53;16.52;;;2.38;;
80584;SDS011;70137;56.482;9.154;2023-09-19T14:22:18;15.15;;;2.85;;
80584;SDS011;70137;56.482;9.154;2023-09-19T14:24:44;13.35;;;2.50;;
80584;SDS011;70137;56.482;9.154;2023-09-19T14:27:10;10.65;;;2.55;;
80584;SDS011;70137;56.482;9.154;2023-09-19T14:29:36;11.43;;;2.60;;
80584;SDS011;70137;56.482;9.154;2023-09-19T14:32:01;11.82;;;2.30;;
80584;SDS011;70137;56.482;9.154;2023-09-19T14:34:27;10.63;;;1.90;;
80584;SDS011;70137;56.482;9.154;2023-09-19T14:36:52;8.73;;;1.75;;
80584;SDS011;70137;56.482;9.154;2023-09-19T14:39:19;15.18;;;2.17;;
80584;SDS011;70137;56.482;9.154;2023-09-19T14:41:45;13.25;;;1.90;;
80584;SDS011;70137;56.482;9.154;2023-09-19T14:44:10;8.85;;;2.00;;
80584;SDS011;70137;56.482;9.154;2023-09-19T14:46:36;8.45;;;2.17;;
80584;SDS011;70137;56.482;9.154;2023-09-19T14:49:01;10.45;;;2.20;;
80584;SDS011;70137;56.482;9.154;2023-09-19T14:51:29;12.02;;;1.90;;
80584;SDS011;70137;56.482;9.154;2023-09-19T14:53:55;10.02;;;1.85;;
80584;SDS011;70137;56.482;9.154;2023-09-19T14:56:22;13.07;;;2.50;;
80584;SDS011;70137;56.482;9.154;2023-09-19T14:58:50;11.77;;;1.65;;
80584;SDS011;70137;56.482;9.154;2023-09-19T15:01:16;10.40;;;1.83;;
80584;SDS011;70137;56.482;9.154;2023-09-19T15:03:41;9.77;;;2.10;;
80584;SDS011;70137;56.482;9.154;2023-09-19T15:06:08;9.20;;;2.30;;
80584;SDS011;70137;56.482;9.154;2023-09-19T15:08:35;13.55;;;2.20;;
80584;SDS011;70137;56.482;9.154;2023-09-19T15:11:03;9.63;;;2.40;;
80584;SDS011;70137;56.482;9.154;2023-09-19T15:13:30;9.68;;;2.00;;
80584;SDS011;70137;56.482;9.154;2023-09-19T15:16:02;10.85;;;1.95;;
80584;SDS011;70137;56.482;9.154;2023-09-19T15:18:31;11.07;;;2.00;;
80584;SDS011;70137;56.482;9.154;2023-09-19T15:21:01;7.82;;;1.83;;
80584;SDS011;70137;56.482;9.154;2023-09-19T15:23:28;8.38;;;1.90;;
80584;SDS011;70137;56.482;9.154;2023-09-19T15:25:54;7.80;;;2.20;;
80584;SDS011;70137;56.482;9.154;2023-09-19T15:28:21;8.43;;;2.28;;
80584;SDS011;70137;56.482;9.154;2023-09-19T15:30:47;7.78;;;1.85;;
80584;SDS011;70137;56.482;9.154;2023-09-19T15:33:13;8.73;;;1.90;;
80584;SDS011;70137;56.482;9.154;2023-09-19T15:35:39;9.23;;;1.77;;
80584;SDS011;70137;56.482;9.154;2023-09-19T15:38:04;6.75;;;2.13;;
80584;SDS011;70137;56.482;9.154;2023-09-19T15:40:30;7.57;;;1.60;;
80584;SDS011;70137;56.482;9.154;2023-09-19T15:42:55;9.20;;;1.67;;
80584;SDS011;70137;56.482;9.154;2023-09-19T15:45:21;10.00;;;1.35;;
80584;SDS011;70137;56.482;9.154;2023-09-19T15:47:47;5.25;;;1.20;;
80584;SDS011;70137;56.482;9.154;2023-09-19T15:50:12;3.28;;;1.10;;
80584;SDS011;70137;56.482;9.154;2023-09-19T15:52:41;4.85;;;0.98;;
80584;SDS011;70137;56.482;9.154;2023-09-19T15:55:07;5.13;;;1.00;;
80584;SDS011;70137;56.482;9.154;2023-09-19T15:57:34;4.03;;;0.93;;
80584;SDS011;70137;56.482;9.154;2023-09-19T16:00:01;3.67;;;0.93;;